Accueil
METAR-TAF:

METAR-TAF

Aéroports :

Khajurâho, Inde

latitude: 24-49-02N, longitude: 79-55-07E, altitude: 222 m

Observation

Le bulletin a été fait il y a 10 heures et 50 minutes, à 12:00 UTC
Vent calme
Température 19°C
Humidité 64%
Pression 1018 hPa
Visibilité: 3000 m
Nuages épars à une hauteur de 2500 ft
Nuages épars à une hauteur de 10000 ft
brume sèche

METAR: VEKO 221200Z 00000KT 3000 HZ SCT025 SCT100 19/12 Q1018

Heure: 04:20 (22:50 UTC)

Prévision

Le bulletin a été fait il y a 32 heures et 50 minutes, à 14:00 UTC
Prévision valable du 21 à 15 UTC au 21 à 24 UTC
Vent 5 kt de nord-est
Visibilité: 4000 m
brume sèche

TAF: VEKO 211400Z 2115/2124 05005KT 4000 HZ NSC

Observations et prévisions météorologiques de plus de 4000 aéroports (messages METAR et TAF).

Les stations disponibles sont représentées par des disques jaunes et rouges sur la carte.

Passer la souris dessus pour voir le nom de la station.

Cliquer dessus pour voir les observations et prévisions météorologiques.

Pour changer de carte: cliquez sur les boutons verts avec une croix noire pour zoomer, sur le bouton vert avec un tiret pour effectuer un zoom arrière, ou sur les flèches vertes pour les cartes adjacentes.


METAR-TAF: